Waterville, Vermont
Current Conditions -  °F | °C
As of 7:15 PM on Tuesday 25 Nov 2014 (Local Time) from KFSO Reporting Station
Overcast Overcast  
Wind Chill: 39°   Ceiling: 5000
Heat Index: 44°   Visibility: 10mi
Dew Point: 28°   Wind: 9mph
Humidity: 54%   Direction: 230°SW
Pressure: 29.96"   Gusts: NA
Location:  44.69°N, 72.77°W
Report Text: KFSO 260015Z AUTO 23008KT 210V270 10SM OVC050 07/M02 A2996 RMK AO2 T00651023
Loading
Personal Weather Stations






























Interactive Weather Map New forecast layout! Learn more

10-Day Weather Forecast

Advertisements
Track Severe Weather on mobile